createdAt,value
2022-07-29T00:03:20.123Z,95919.81
2022-07-29T00:10:26.110Z,95915.94
2022-07-29T00:17:28.348Z,95908.88
2022-07-29T00:24:30.581Z,95923.25
2022-07-29T00:31:34.186Z,95918.16
2022-07-29T00:38:36.457Z,95924.25
2022-07-29T00:45:38.674Z,95915.88
2022-07-29T00:52:42.653Z,95920.47
2022-07-29T00:59:44.890Z,95913.16
2022-07-29T01:06:47.184Z,95901.34
2022-07-29T01:13:50.951Z,95891.41
2022-07-29T01:21:04.714Z,95886.44
2022-07-29T01:28:18.692Z,95890.28
2022-07-29T01:35:24.658Z,95898.44
2022-07-29T01:42:29.000Z,95892.78
2022-07-29T01:49:32.530Z,95897.91
2022-07-29T01:56:36.195Z,95889.97
2022-07-29T02:03:38.690Z,95891.50
2022-07-29T02:10:40.874Z,95879.66
2022-07-29T02:17:46.796Z,95880.47
2022-07-29T02:24:49.034Z,95876.63
2022-07-29T02:31:51.934Z,95886.03
2022-07-29T02:38:58.406Z,95880.22
2022-07-29T02:46:00.657Z,95890.28
2022-07-29T02:53:05.725Z,95883.03
2022-07-29T03:00:10.454Z,95885.19
2022-07-29T03:07:14.924Z,95884.78
2022-07-29T03:14:18.463Z,95880.19
2022-07-29T03:21:22.335Z,95881.66
2022-07-29T03:28:24.557Z,95876.00
2022-07-29T03:35:30.793Z,95874.72
2022-07-29T03:42:34.820Z,95871.75
2022-07-29T03:49:39.107Z,95869.66
2022-07-29T03:56:43.127Z,95875.47
2022-07-29T04:03:46.965Z,95868.41
2022-07-29T04:10:49.252Z,95870.28
2022-07-29T04:17:53.682Z,95874.94
2022-07-29T04:25:03.234Z,95877.34
2022-07-29T04:32:09.299Z,95895.06
2022-07-29T04:39:11.520Z,95905.63
2022-07-29T04:46:15.217Z,95896.34
2022-07-29T04:53:17.552Z,95903.94
2022-07-29T05:00:19.788Z,95890.50
2022-07-29T05:07:23.405Z,95893.06
2022-07-29T05:14:25.657Z,95895.56
2022-07-29T05:21:28.895Z,95893.19
2022-07-29T05:28:36.050Z,95890.38
2022-07-29T05:35:40.622Z,95887.19
2022-07-29T05:42:42.916Z,95883.38
2022-07-29T05:49:47.032Z,95900.59
2022-07-29T05:56:49.294Z,95911.44
2022-07-29T06:03:53.915Z,95910.72
2022-07-29T06:10:57.669Z,95915.03
2022-07-29T06:18:02.288Z,95924.25
2022-07-29T06:25:05.429Z,95934.47
2022-07-29T06:32:10.099Z,95925.84
2022-07-29T06:39:12.490Z,95933.28
2022-07-29T06:46:15.587Z,95930.22
2022-07-29T06:53:19.251Z,95946.50
2022-07-29T07:00:21.534Z,95948.84
2022-07-29T07:07:23.794Z,95947.50
2022-07-29T07:14:29.883Z,95950.63
2022-07-29T07:21:32.268Z,95945.75
2022-07-29T07:28:34.608Z,95944.00
2022-07-29T07:35:40.680Z,95940.72
2022-07-29T07:42:42.930Z,95945.25
2022-07-29T07:49:45.924Z,95944.88
2022-07-29T07:56:52.936Z,95943.75
2022-07-29T08:03:55.652Z,95950.72
2022-07-29T08:10:58.005Z,95939.69
2022-07-29T08:18:06.568Z,95957.53
2022-07-29T08:25:10.847Z,95956.78
2022-07-29T08:32:26.176Z,95954.84
2022-07-29T08:39:37.586Z,95963.88
2022-07-29T08:46:40.646Z,95968.75
2022-07-29T08:53:43.173Z,95962.13
2022-07-29T09:00:47.459Z,95965.31
2022-07-29T09:07:51.619Z,95961.34
2022-07-29T09:14:54.448Z,95955.97
2022-07-29T09:21:59.304Z,95948.66
2022-07-29T09:29:08.306Z,95950.16
2022-07-29T09:36:10.545Z,95945.13
2022-07-29T09:43:14.352Z,95954.66
2022-07-29T09:50:16.824Z,95958.44
2022-07-29T09:57:30.540Z,95953.94
2022-07-29T10:04:41.372Z,95949.84
2022-07-29T10:11:49.858Z,95937.22
2022-07-29T10:18:52.181Z,95940.63
2022-07-29T10:25:56.465Z,95949.16
2022-07-29T10:33:11.402Z,95943.94
2022-07-29T10:40:37.527Z,95929.69
2022-07-29T10:47:44.819Z,95932.69
2022-07-29T10:54:49.256Z,95912.97
2022-07-29T11:01:56.687Z,95903.44
2022-07-29T11:09:18.254Z,95909.00
2022-07-29T11:16:25.633Z,95909.66
2022-07-29T11:23:33.508Z,95908.09
2022-07-29T11:30:51.999Z,95909.81
2022-07-29T11:38:28.333Z,95918.88
2022-07-29T11:45:46.178Z,95934.66
2022-07-29T11:52:52.842Z,95941.78
2022-07-29T11:59:55.153Z,95930.19
2022-07-29T12:07:00.446Z,95925.75
2022-07-29T12:14:04.467Z,95933.13
2022-07-29T12:21:06.895Z,95930.81
2022-07-29T12:28:09.816Z,95933.69
2022-07-29T12:35:20.250Z,95941.00
2022-07-29T12:42:22.674Z,95910.66
2022-07-29T12:49:25.758Z,95912.47
2022-07-29T12:56:42.416Z,95908.50
2022-07-29T13:03:57.090Z,95923.06
2022-07-29T13:11:00.316Z,95942.34
2022-07-29T13:18:04.756Z,95943.59
2022-07-29T13:25:08.025Z,95947.16
2022-07-29T13:32:10.231Z,95947.31
2022-07-29T13:39:16.370Z,95933.94
2022-07-29T13:46:18.998Z,95932.38
2022-07-29T13:53:26.935Z,95915.38
2022-07-29T14:00:30.992Z,95906.59
2022-07-29T14:07:33.220Z,95895.53
2022-07-29T14:14:37.267Z,95894.00
2022-07-29T14:21:40.836Z,95879.91
2022-07-29T14:28:44.734Z,95892.44
2022-07-29T14:35:46.943Z,95891.59
2022-07-29T14:42:50.493Z,95890.88
2022-07-29T14:49:52.727Z,95895.97
2022-07-29T14:56:57.846Z,95909.84
2022-07-29T15:04:04.379Z,95917.66
2022-07-29T15:11:08.962Z,95917.66
2022-07-29T15:18:11.226Z,95932.94
2022-07-29T15:25:14.822Z,95926.38
2022-07-29T15:32:17.251Z,95934.97
2022-07-29T15:39:19.657Z,95933.31
2022-07-29T15:46:44.307Z,95938.16
2022-07-29T15:53:53.208Z,95936.97
2022-07-29T16:00:57.412Z,95935.06
2022-07-29T16:08:01.435Z,95930.09
2022-07-29T16:15:09.514Z,95933.47
2022-07-29T16:22:12.470Z,95931.19
2022-07-29T16:29:18.042Z,95927.38
2022-07-29T16:36:20.533Z,95925.22
2022-07-29T16:43:22.768Z,95923.44
2022-07-29T16:50:27.708Z,95935.56
2022-07-29T16:57:32.331Z,95937.03
2022-07-29T17:04:37.552Z,95941.22
2022-07-29T17:11:52.326Z,95945.38
2022-07-29T17:18:57.095Z,95954.41
2022-07-29T17:25:59.482Z,95952.41
2022-07-29T17:33:03.201Z,95961.31
2022-07-29T17:40:06.828Z,95963.63
2022-07-29T17:47:15.624Z,95970.69
2022-07-29T17:54:22.559Z,95972.28
2022-07-29T18:01:31.617Z,95979.66
2022-07-29T18:08:36.031Z,95974.28
2022-07-29T18:15:39.590Z,95979.13
2022-07-29T18:22:41.886Z,95985.69
2022-07-29T18:29:44.101Z,95983.00
2022-07-29T18:36:57.319Z,95988.88
2022-07-29T18:44:02.114Z,95992.19
2022-07-29T18:51:09.437Z,95999.09
2022-07-29T18:58:13.162Z,96006.56
2022-07-29T19:05:15.414Z,96024.88
2022-07-29T19:12:17.651Z,96030.00
2022-07-29T19:19:21.495Z,96039.63
2022-07-29T19:26:23.759Z,96048.50
2022-07-29T19:33:28.836Z,96059.72
2022-07-29T19:40:35.588Z,96080.16
2022-07-29T19:47:38.016Z,96098.97
2022-07-29T19:54:40.235Z,96095.75
2022-07-29T20:01:43.838Z,96097.94
2022-07-29T20:08:46.124Z,96105.00
2022-07-29T20:15:48.369Z,96097.81
2022-07-29T20:22:54.409Z,96087.09
2022-07-29T20:29:56.641Z,96086.03
2022-07-29T20:37:00.246Z,96090.59
2022-07-29T20:44:06.938Z,96071.91
2022-07-29T20:51:09.171Z,96080.38
2022-07-29T20:58:11.458Z,96080.31
2022-07-29T21:05:15.042Z,96079.81
2022-07-29T21:12:17.388Z,96080.50
2022-07-29T21:19:19.760Z,96086.78
2022-07-29T21:26:23.283Z,96094.72
2022-07-29T21:33:25.698Z,96089.13
2022-07-29T21:40:30.455Z,96090.38
2022-07-29T21:47:34.025Z,96094.94
2022-07-29T21:54:36.265Z,96090.06
2022-07-29T22:01:38.934Z,96085.03
2022-07-29T22:08:45.489Z,96074.28
2022-07-29T22:15:47.763Z,96074.19
2022-07-29T22:22:50.132Z,96068.78
2022-07-29T22:29:53.642Z,96070.47
2022-07-29T22:36:55.947Z,96071.13
2022-07-29T22:43:58.280Z,96074.59
2022-07-29T22:51:01.805Z,96072.31
2022-07-29T22:58:06.567Z,96066.72
2022-07-29T23:05:10.142Z,96060.38
2022-07-29T23:12:13.680Z,96060.00
2022-07-29T23:19:15.886Z,96077.00
2022-07-29T23:26:18.148Z,96067.44
2022-07-29T23:33:21.724Z,96063.72
2022-07-29T23:40:23.999Z,96058.16
2022-07-29T23:47:26.197Z,96049.75
2022-07-29T23:54:29.779Z,96059.94
